SondeTracker

Meteorological Radiosondes Database

Operations

Sounding was ended - last measurement: 2022-12-05 17:40:04z

MAP
About Radiosonde

Number: U1520141

Launch Site: Salt Lake City [UT] (US)

Type: RS41

AUX: NO

Frequency: 405.300 MHz

Max Speed: 219 km/h at 11372 m

Average Speed: 104.17 km/h

Max Altitude: 21351 m

Average Ascent Speed: 5.65 m/s

Average Descent Speed: 14.00 m/s

Status: UNKNOWN

Status Changes
Launch Site Type AUX Frequency Status Finder Landing Point Description Changes made by
APRS Statistics

Received Frames: 35

First Frame [UTC]: 2022-12-05 17:05:28z

Last Frame [UTC]: 2022-12-05 17:40:04z

Receivers: N7ZDX-1

Flight Time: 00:34:36 h

Distance From First Measurement: 58.68 km

Nearest City: Alpine [UT] (US) [13.24 km]

Nearest Hunter: mongolw8 [65.13 km]

Ground Altitude: 2562 m

Distance from QTH: 0.00 km

APRS Data
Receiver Number Date/Time [UTC] φ λ Course [°] Speed [km/h] Altitude [m] Description
N7ZDX-1U15201412022-12-05 17:40:0440.495-111.62170744254Clb=-10.3m/s t=-14.5C h=85.9% p=-1.0hPa 405.300 MHz Type=RS41-SG ser=U1520141 Radiosonde
N7ZDX-1U15201412022-12-05 17:39:0340.491-111.63465704868Clb=-10.9m/s t=-19.1C h=86.3% p=-1.0hPa 405.300 MHz Type=RS41-SG ser=U1520141 Radiosonde
N7ZDX-1U15201412022-12-05 17:38:0240.4866-111.64967855524Clb=-11.8m/s t=-22.5C h=78.8% p=-1.0hPa 405.300 MHz Type=RS41-SG ser=U1520141 Radiosonde
N7ZDX-1U15201412022-12-05 17:37:0140.4826-111.667721046219Clb=-11.9m/s t=-27.4C h=81.0% p=-1.0hPa 405.300 MHz Type=RS41-SG ser=U1520141 Radiosonde
N7ZDX-1U15201412022-12-05 17:35:5940.4759-111.692671506903Clb=-13.3m/s t=-30.0C h=73.5% p=-1.0hPa 405.300 MHz Type=RS41-SG ser=U1520141 Radiosonde
N7ZDX-1U15201412022-12-05 17:34:5840.4667-111.718671507598Clb=-11.3m/s t=-35.8C h=75.7% p=-1.0hPa 405.300 MHz Type=RS41-SG ser=U1520141 Radiosonde
N7ZDX-1U15201412022-12-05 17:33:5740.4574-111.747671708297Clb=-11.3m/s t=-40.8C h=62.2% p=-1.0hPa 405.300 MHz Type=RS41-SG ser=U1520141 Radiosonde
N7ZDX-1U15201412022-12-05 17:32:5640.4473-111.782681989006Clb=-11.9m/s t=-45.6C h=59.9% p=-1.0hPa 405.300 MHz Type=RS41-SG ser=U1520141 Radiosonde
N7ZDX-1U15201412022-12-05 17:31:5540.4348-111.82662099772Clb=-12.6m/s t=-49.6C h=16.9% p=-1.0hPa 405.300 MHz Type=RS41-SG ser=U1520141 Radiosonde
N7ZDX-1U15201412022-12-05 17:30:5440.4217-111.866820710551Clb=-12.9m/s t=-53.8C h=11.2% p=-1.0hPa 405.300 MHz Type=RS41-SG ser=U1520141 Radiosonde
N7ZDX-1U15201412022-12-05 17:29:5340.407-111.8996521911372Clb=-14.0m/s t=-55.4C h=7.0% p=-1.0hPa 405.300 MHz Type=RS41-SG ser=U1520141 Radiosonde
N7ZDX-1U15201412022-12-05 17:28:5240.3962-111.9377520712152Clb=-13.1m/s t=-57.1C h=4.1% p=-1.0hPa 405.300 MHz Type=RS41-SG ser=U1520141 Radiosonde
N7ZDX-1U15201412022-12-05 17:27:5140.39-111.9727215712992Clb=-16.2m/s t=-58.0C h=2.9% p=-1.0hPa 405.300 MHz Type=RS41-SG ser=U1520141 Radiosonde
N7ZDX-1U15201412022-12-05 17:26:5040.3835-112.0037715913907Clb=-17.0m/s t=-59.6C h=2.9% p=-1.0hPa 405.300 MHz Type=RS41-SG ser=U1520141 Radiosonde
N7ZDX-1U15201412022-12-05 17:25:4940.378-112.0317314614900Clb=-14.0m/s t=-61.3C h=2.7% p=-1.0hPa 405.300 MHz Type=RS41-SG ser=U1520141 Radiosonde
N7ZDX-1U15201412022-12-05 17:24:4840.3732-112.055749415921Clb=-15.4m/s t=-59.5C h=2.2% p=-1.0hPa 405.300 MHz Type=RS41-SG ser=U1520141 Radiosonde
N7ZDX-1U15201412022-12-05 17:23:4740.3702-112.07807016898Clb=-18.2m/s t=-58.4C h=1.9% p=-1.0hPa 405.300 MHz Type=RS41-SG ser=U1520141 Radiosonde
N7ZDX-1U15201412022-12-05 17:22:4640.3681-112.085837418005Clb=-21.5m/s t=-62.8C h=1.9% p=-1.0hPa 405.300 MHz Type=RS41-SG ser=U1520141 Radiosonde
N7ZDX-1U15201412022-12-05 17:21:4540.3685-112.101946919140Clb=-21.2m/s t=-63.4C h=2.0% p=-1.0hPa 405.300 MHz Type=RS41-SG ser=U1520141 Radiosonde
N7ZDX-1U15201412022-12-05 17:20:4440.3707-112.1131285420242Clb=-19.5m/s t=-61.2C h=1.6% p=-1.0hPa 405.300 MHz Type=RS41-SG ser=U1520141 Radiosonde
N7ZDX-1U15201412022-12-05 17:19:4340.3721-112.121135621351Clb=-15.5m/s t=-61.5C h=1.6% p=-1.0hPa 405.300 MHz Type=RS41-SG ser=U1520141 Radiosonde
N7ZDX-1U15201412022-12-05 17:18:4240.3748-112.136674120913Clb=6.7m/s t=-62.8C h=1.7% p=-1.0hPa 405.300 MHz Type=RS41-SG ser=U1520141 Radiosonde
N7ZDX-1U15201412022-12-05 17:17:4140.374-112.14823320715Clb=6.2m/s t=-62.0C h=1.7% p=-1.0hPa 405.300 MHz Type=RS41-SG ser=U1520141 Radiosonde
N7ZDX-1U15201412022-12-05 17:16:4040.3751-112.1461154820326Clb=5.8m/s t=-61.1C h=1.5% p=-1.0hPa 405.300 MHz Type=RS41-SG ser=U1520141 Radiosonde
N7ZDX-1U15201412022-12-05 17:15:3840.3795-112.1551116719975Clb=4.0m/s t=-59.2C h=1.6% p=-1.0hPa 405.300 MHz Type=RS41-SG ser=U1520141 Radiosonde
N7ZDX-1U15201412022-12-05 17:14:3740.3823-112.1691006119660Clb=6.7m/s t=-58.2C h=1.5% p=-1.0hPa 405.300 MHz Type=RS41-SG ser=U1520141 Radiosonde
N7ZDX-1U15201412022-12-05 17:13:3740.3825-112.18976919299Clb=7.1m/s t=-64.7C h=2.3% p=-1.0hPa 405.300 MHz Type=RS41-SG ser=U1520141 Radiosonde
N7ZDX-1U15201412022-12-05 17:12:3640.3832-112.197917218867Clb=6.8m/s t=-62.0C h=2.1% p=-1.0hPa 405.300 MHz Type=RS41-SG ser=U1520141 Radiosonde
N7ZDX-1U15201412022-12-05 17:11:3440.3832-112.207875718598Clb=3.4m/s t=-62.7C h=2.2% p=-1.0hPa 405.300 MHz Type=RS41-SG ser=U1520141 Radiosonde
N7ZDX-1U15201412022-12-05 17:10:3340.3847-112.221958518280Clb=5.8m/s t=-64.2C h=2.5% p=-1.0hPa 405.300 MHz Type=RS41-SG ser=U1520141 Radiosonde
N7ZDX-1U15201412022-12-05 17:09:3240.3849-112.237877617946Clb=4.0m/s t=-62.0C h=2.2% p=-1.0hPa 405.300 MHz Type=RS41-SG ser=U1520141 Radiosonde
N7ZDX-1U15201412022-12-05 17:08:3140.3834-112.253847617600Clb=5.4m/s t=-61.4C h=2.0% p=-1.0hPa 405.300 MHz Type=RS41-SG ser=U1520141 Radiosonde
N7ZDX-1U15201412022-12-05 17:07:3040.3821-112.267777817268Clb=8.3m/s t=-59.8C h=-1.0% p=-1.0hPa 405.300 MHz Type=RS41-SG ser=U1520141 Radiosonde
N7ZDX-1U15201412022-12-05 17:06:2940.3792-112.282697216900Clb=5.5m/s t=-58.2C h=-1.0% p=-1.0hPa 405.300 MHz Type=RS41-SG ser=U1520141 Radiosonde
N7ZDX-1U15201412022-12-05 17:05:2840.3776-112.297758916519Clb=5.7m/s t=-273.0C h=-1.0% p=-1.0hPa 405.300 MHz Type=RS41 ser=U1520141 Radiosonde